createdAt,value
2022-07-25T00:02:51.053Z,6.20
2022-07-25T00:08:23.003Z,6.50
2022-07-25T00:13:54.333Z,6.55
2022-07-25T00:19:25.859Z,6.70
2022-07-25T00:24:57.533Z,6.80
2022-07-25T00:30:29.340Z,6.90
2022-07-25T00:36:01.473Z,7.00
2022-07-25T00:41:33.297Z,7.10
2022-07-25T00:47:05.437Z,7.10
2022-07-25T00:52:36.921Z,7.25
2022-07-25T00:58:08.568Z,7.40
2022-07-25T03:04:20.638Z,9.80
2022-07-25T03:09:52.395Z,10.00
2022-07-25T03:15:24.248Z,10.15
2022-07-25T03:20:56.127Z,10.20
2022-07-25T03:26:28.012Z,10.35
2022-07-25T03:31:59.801Z,10.40
2022-07-25T03:37:31.561Z,10.45
2022-07-25T03:43:03.366Z,10.50
2022-07-25T03:48:35.363Z,10.60
2022-07-25T03:54:07.927Z,10.65
2022-07-25T03:59:39.497Z,10.80
2022-07-25T04:05:11.565Z,10.90
2022-07-25T04:10:43.046Z,11.00
2022-07-25T04:16:15.098Z,11.05
2022-07-25T04:21:46.803Z,11.05
2022-07-25T04:27:18.514Z,11.10
2022-07-25T04:32:50.325Z,11.10
2022-07-25T04:38:21.956Z,11.15
2022-07-25T04:43:53.864Z,11.30
2022-07-25T04:49:25.442Z,11.40
2022-07-25T04:54:57.471Z,11.50
2022-07-25T05:00:29.579Z,11.65
2022-07-25T05:06:01.399Z,11.80
2022-07-25T05:11:33.100Z,11.80
2022-07-25T05:17:04.821Z,11.85
2022-07-25T05:22:36.715Z,12.00
2022-07-25T05:28:08.436Z,12.25
2022-07-25T05:33:40.139Z,12.25
2022-07-25T05:39:11.991Z,12.35
2022-07-25T05:44:43.637Z,12.35
2022-07-25T05:50:15.562Z,12.35
2022-07-25T05:55:47.389Z,12.50
2022-07-25T06:01:19.148Z,12.50
2022-07-25T06:06:50.878Z,12.55
2022-07-25T06:12:24.252Z,12.65
2022-07-25T06:17:54.217Z,12.70
2022-07-25T06:23:27.774Z,12.90
2022-07-25T06:28:57.680Z,13.00
2022-07-25T06:34:29.101Z,13.10
2022-07-25T06:40:01.066Z,13.15
2022-07-25T06:45:32.721Z,13.25
2022-07-25T06:51:04.518Z,13.30
2022-07-25T06:53:15.874Z,3.93
2022-07-25T07:04:16.500Z,1.97
2022-07-25T07:09:47.997Z,1.96
2022-07-25T07:15:20.235Z,1.57
2022-07-25T07:20:51.804Z,1.80
2022-07-25T07:26:23.603Z,1.68
2022-07-25T07:31:57.618Z,1.84
2022-07-25T07:37:33.677Z,1.85
2022-07-25T07:43:00.895Z,1.67
2022-07-25T07:48:33.015Z,1.60
2022-07-25T07:54:04.458Z,1.55
2022-07-25T07:59:36.438Z,1.51
2022-07-25T08:10:37.300Z,1.57
2022-07-25T08:16:09.164Z,1.65
2022-07-25T08:23:59.936Z,1.00
2022-07-25T08:35:01.333Z,1.64
2022-07-25T08:40:33.178Z,1.97
2022-07-25T08:46:04.987Z,2.36
2022-07-25T08:51:36.763Z,2.29
2022-07-25T08:57:08.501Z,2.24
2022-07-25T09:02:40.458Z,2.45
2022-07-25T09:13:41.092Z,2.55
2022-07-25T09:19:13.591Z,2.32
2022-07-25T09:24:45.360Z,2.20
2022-07-25T09:30:17.145Z,2.19
2022-07-25T09:35:48.892Z,2.17
2022-07-25T09:41:20.380Z,2.09
2022-07-25T09:46:51.935Z,2.02
2022-07-25T09:52:23.485Z,2.02
2022-07-25T09:58:17.411Z,1.00
2022-07-25T10:03:49.456Z,1.49
2022-07-25T10:09:21.216Z,1.64
2022-07-25T10:14:52.682Z,1.97
2022-07-25T10:20:24.106Z,2.16
2022-07-25T10:25:55.836Z,2.12
2022-07-25T10:31:27.608Z,2.10
2022-07-25T10:36:59.148Z,2.09
2022-07-25T10:42:30.880Z,2.07
2022-07-25T10:48:02.803Z,1.96
2022-07-25T10:53:34.396Z,1.96
2022-07-25T10:59:06.364Z,1.88
2022-07-25T11:04:37.990Z,1.88
2022-07-25T11:10:09.697Z,1.82
2022-07-25T11:15:41.635Z,1.89
2022-07-25T11:21:13.348Z,1.84
2022-07-25T11:26:45.185Z,1.73
2022-07-25T11:32:17.191Z,1.80
2022-07-25T11:37:49.005Z,1.80
2022-07-25T11:43:20.522Z,1.80
2022-07-25T11:48:52.414Z,1.85
2022-07-25T11:54:24.238Z,2.05
2022-07-25T11:59:56.023Z,2.20
2022-07-25T12:05:27.721Z,2.25
2022-07-25T12:10:59.552Z,2.30
2022-07-25T12:16:31.320Z,2.40
2022-07-25T12:22:03.183Z,2.55
2022-07-25T12:27:34.967Z,2.55
2022-07-25T12:33:06.827Z,2.75
2022-07-25T12:38:38.648Z,2.80
2022-07-25T12:44:10.147Z,2.95
2022-07-25T12:49:41.814Z,3.00
2022-07-25T12:55:13.511Z,3.00
2022-07-25T13:00:45.208Z,3.05
2022-07-25T13:06:17.303Z,3.05
2022-07-25T13:11:48.896Z,3.10
2022-07-25T13:17:26.514Z,3.30
2022-07-25T13:22:52.215Z,3.30
2022-07-25T13:28:23.926Z,3.35
2022-07-25T13:33:55.813Z,3.50
2022-07-25T13:39:27.231Z,3.50
2022-07-25T13:44:58.837Z,3.55
2022-07-25T13:50:30.515Z,3.70
2022-07-25T13:56:02.008Z,3.95
2022-07-25T14:01:33.923Z,3.95
2022-07-25T14:07:05.112Z,4.00
2022-07-25T14:18:08.297Z,4.10
2022-07-25T14:23:40.120Z,4.20
2022-07-25T14:29:11.757Z,4.20
2022-07-25T14:34:43.330Z,4.25
2022-07-25T14:40:15.113Z,4.30
2022-07-25T14:45:46.800Z,4.40
2022-07-25T14:51:18.813Z,4.40
2022-07-25T14:56:50.360Z,4.50
2022-07-25T15:02:21.698Z,4.50
2022-07-25T15:07:53.637Z,4.50
2022-07-25T15:13:31.435Z,4.50
2022-07-25T15:24:29.518Z,4.75
2022-07-25T15:35:30.882Z,4.85
2022-07-25T15:41:02.435Z,4.85
2022-07-25T15:46:34.131Z,5.00
2022-07-25T15:52:05.522Z,5.15
2022-07-25T15:57:37.056Z,5.25
2022-07-25T16:03:14.360Z,5.35
2022-07-25T16:08:46.140Z,5.40
2022-07-25T16:14:17.850Z,5.40
2022-07-25T16:19:49.386Z,5.50
2022-07-25T16:25:20.961Z,5.70
2022-07-25T16:30:52.833Z,5.70
2022-07-25T16:41:56.525Z,5.75
2022-07-25T16:47:28.382Z,5.90
2022-07-25T16:52:59.873Z,6.10
2022-07-25T16:58:31.612Z,6.20
2022-07-25T17:04:03.440Z,6.25
2022-07-25T17:09:35.363Z,6.35
2022-07-25T17:15:07.499Z,6.70
2022-07-25T17:20:39.224Z,6.85
2022-07-25T17:26:10.996Z,6.90
2022-07-25T17:31:42.512Z,7.00
2022-07-25T17:37:14.299Z,7.30
2022-07-25T17:42:47.988Z,7.35
2022-07-25T17:53:49.603Z,7.65
2022-07-25T18:10:22.807Z,8.05
2022-07-25T18:15:54.918Z,8.20
2022-07-25T18:21:26.330Z,8.30
2022-07-25T18:26:58.131Z,8.30
2022-07-25T18:32:29.637Z,8.30
2022-07-25T18:49:00.703Z,8.60
2022-07-25T18:54:32.469Z,8.75
2022-07-25T19:00:04.103Z,8.80
2022-07-25T19:05:36.065Z,8.85
2022-07-25T19:11:07.349Z,8.90
2022-07-25T19:16:39.214Z,8.90
2022-07-25T19:27:40.345Z,9.30
2022-07-25T19:33:11.937Z,9.50
2022-07-25T19:38:43.924Z,9.55
2022-07-25T19:49:45.193Z,9.75
2022-07-25T19:55:17.259Z,9.85
2022-07-25T20:00:49.297Z,9.85
2022-07-25T20:14:14.781Z,2.00
2022-07-25T20:19:47.702Z,1.49
2022-07-25T20:25:19.889Z,0.98
2022-07-25T20:30:52.452Z,0.98
2022-07-25T20:36:24.487Z,1.18
2022-07-25T20:41:56.517Z,1.14
2022-07-25T20:47:28.520Z,1.26
2022-07-25T20:53:00.330Z,1.23
2022-07-25T21:04:07.048Z,1.47
2022-07-25T21:09:33.801Z,1.52
2022-07-25T21:17:27.186Z,1.97
2022-07-25T21:22:59.473Z,1.48
2022-07-25T21:28:31.212Z,1.64
2022-07-25T21:34:03.138Z,1.71
2022-07-25T21:39:35.051Z,2.16
2022-07-25T21:45:06.561Z,1.96
2022-07-25T21:50:42.172Z,1.96
2022-07-25T21:56:10.169Z,2.08
2022-07-25T22:01:42.107Z,2.29
2022-07-25T22:07:13.736Z,2.35
2022-07-25T22:12:45.978Z,2.32
2022-07-25T22:18:17.826Z,2.69
2022-07-25T22:23:49.641Z,2.63
2022-07-25T22:29:21.258Z,2.66
2022-07-25T22:34:53.027Z,2.74
2022-07-25T22:40:24.964Z,2.75
2022-07-25T22:45:57.047Z,2.71
2022-07-25T22:51:28.482Z,2.83
2022-07-25T22:57:00.691Z,2.73
2022-07-25T23:02:32.320Z,2.75
2022-07-25T23:13:33.523Z,2.95
2022-07-25T23:24:37.770Z,3.10
2022-07-25T23:30:06.874Z,3.20
2022-07-25T23:35:39.116Z,3.30
2022-07-25T23:41:10.758Z,3.30
2022-07-25T23:52:12.164Z,3.60
2022-07-25T23:57:43.773Z,3.70
